Stena Atlantica — ZCPR7 — position and weather

sailwx.info

Track history (hours):
 
Tides and Currents Weather Stations Pressure Air Temp Water Temp Dewpoint Dewpoint Depression Visibility Wind Speed Wind Dir Waves Ship Positions

Stena Atlantica

Last reported at 2014-Jul-23 18:34 UTC. Time now 2014-Jul-24 20:03 UTC.
Position N 60°06' E 027°31'.

Length 245 m; draft 8 m.

Type: Tanker. MMSI: 319161000.

Date/timePositionNaut miles runAvg speedWind from/ knotsBaromVisibWave heightAir tempDewpointWater temp
2014-Jul-23 18:34N 60°06' E 027°31'1312.8
2014-Jul-23 17:33N 59°59' E 027°09'1212.3
2014-Jul-23 16:33N 59°59' E 026°44'1312.6
2014-Jul-23 15:34N 59°57' E 026°20'1312.5
2014-Jul-23 14:33N 59°53' E 025°55'1212.1
2014-Jul-23 13:34N 59°51' E 025°32'1312.4
2014-Jul-23 12:30N 59°48' E 025°07'1212.6
2014-Jul-23 11:33N 59°45' E 024°44'1812.3
2014-Jul-23 10:04N 59°41' E 024°08'912.3
2014-Jul-23 09:19N 59°38' E 023°51'912.3
2014-Jul-23 08:33N 59°35' E 023°33'1512.6
2014-Jul-23 07:19N 59°30' E 023°05'1112.3
2014-Jul-23 06:25N 59°27' E 022°44'1012.0
2014-Jul-23 05:33N 59°22' E 022°26'1211.9
2014-Jul-23 04:34N 59°14' E 022°08'1212.0
2014-Jul-23 03:34N 59°07' E 021°49'1212.0
2014-Jul-23 02:34N 58°57' E 021°36'1212.2
2014-Jul-23 01:34N 58°47' E 021°23'1212.2
2014-Jul-23 00:33N 58°37' E 021°09'1212.3
2014-Jul-22 23:33N 58°27' E 020°56'1212.2
2014-Jul-22 22:33N 58°17' E 020°43'1212.1
2014-Jul-22 21:34N 58°07' E 020°30'1211.6
2014-Jul-22 20:33N 57°56' E 020°21'1212.1
2014-Jul-22 19:34N 57°44' E 020°21'1212.2
2014-Jul-22 18:33N 57°32' E 020°19'1212.1
2014-Jul-22 17:34N 57°20' E 020°19'1212.1
2014-Jul-22 16:33N 57°07' E 020°18'1212.1
2014-Jul-22 15:34N 56°55' E 020°18'1212.1
2014-Jul-22 14:34N 56°43' E 020°17'1212.1
2014-Jul-22 13:34N 56°31' E 020°16'1111.1
2014-Jul-22 12:34N 56°21' E 020°23'1212.4
2014-Jul-22 11:34N 56°13' E 020°40'1212.2
2014-Jul-22 10:34N 56°04' E 020°55'11 0.3
2014-Jul-21 01:15N 56°07' E 020°36'6 9.0
2014-Jul-21 00:33N 56°12' E 020°30'1312.3
2014-Jul-20 23:32N 56°23' E 020°18'1212.1
2014-Jul-20 22:34N 56°34' E 020°16'1212.4
2014-Jul-20 21:34N 56°47' E 020°16'1212.4
2014-Jul-20 20:33N 56°59' E 020°16'1212.3
2014-Jul-20 19:33N 57°12' E 020°16'1212.4
2014-Jul-20 18:33N 57°24' E 020°16'1212.5
2014-Jul-20 17:33N 57°36' E 020°16'1212.5
2014-Jul-20 16:34N 57°49' E 020°15'1212.2
2014-Jul-20 15:34N 58°01' E 020°17'1612.4
2014-Jul-20 14:17N 58°15' E 020°30'1012.4
2014-Jul-20 13:31N 58°23' E 020°40'1212.4
2014-Jul-20 12:33N 58°33' E 020°52'7912.2
2014-Jul-20 06:09N 59°31' E 022°35'712.1
2014-Jul-20 05:33N 59°33' E 022°49'1312.4
2014-Jul-20 04:32N 59°36' E 023°13'1212.4
2014-Jul-20 03:33N 59°40' E 023°36'1212.6
2014-Jul-20 02:33N 59°43' E 023°60'1212.4
2014-Jul-20 01:33N 59°47' E 024°23'1312.7
2014-Jul-20 00:34N 59°50' E 024°48'1312.9
2014-Jul-19 23:33N 59°52' E 025°13'2712.9
2014-Jul-19 21:26N 59°58' E 026°07'1112.6
2014-Jul-19 20:32N 60°01' E 026°29'1212.3
2014-Jul-19 19:32N 60°00' E 026°53'  
2014-Jul-17 15:32N 60°07' E 027°33'1111.7
2014-Jul-17 14:33N 60°01' E 027°13'1111.1
2014-Jul-17 13:33N 59°59' E 026°51'1211.6
2014-Jul-17 12:33N 59°58' E 026°28'1212.4
2014-Jul-17 11:33N 59°55' E 026°04'1312.6
2014-Jul-17 10:33N 59°52' E 025°40'1412.5
2014-Jul-17 09:28N 59°49' E 025°13'1212.6
2014-Jul-17 08:30N 59°46' E 024°50'1712.4
2014-Jul-17 07:07N 59°42' E 024°16'712.7
2014-Jul-17 06:33N 59°40' E 024°03'1212.6
2014-Jul-17 05:33N 59°36' E 023°40'1312.6
2014-Jul-17 04:33N 59°32' E 023°16'1312.8
2014-Jul-17 03:33N 59°28' E 022°52'19712.8
2014-Jul-16 12:11N 56°57' E 018°51'812.9
2014-Jul-16 11:32N 56°52' E 018°40'8812.6
2014-Jul-16 04:33N 55°58' E 016°34'1312.6
2014-Jul-16 03:31N 55°51' E 016°14'1512.5
2014-Jul-16 02:19N 55°43' E 015°52'1012.8
2014-Jul-16 01:33N 55°38' E 015°37'1313.0
2014-Jul-16 00:33N 55°31' E 015°18'1313.1
2014-Jul-15 23:33N 55°24' E 014°59'1211.6
2014-Jul-15 22:33N 55°17' E 014°42'1312.8
2014-Jul-15 21:34N 55°09' E 014°25'1312.8
2014-Jul-15 20:33N 55°02' E 014°07'1312.7
2014-Jul-15 19:33N 54°56' E 013°47'1212.5
2014-Jul-15 18:33N 54°53' E 013°26'1312.6
2014-Jul-15 17:32N 54°49' E 013°04'1212.6
2014-Jul-15 16:33N 54°45' E 012°44'1212.4
2014-Jul-15 15:33N 54°38' E 012°27'1312.7
2014-Jul-15 14:33N 54°27' E 012°14'1211.8
2014-Jul-15 13:33N 54°24' E 011°55'1212.2
2014-Jul-15 12:33N 54°27' E 011°35'1212.2
2014-Jul-15 11:33N 54°33' E 011°17'1312.6
2014-Jul-15 10:33N 54°40' E 010°58'1211.2
2014-Jul-15 09:30N 54°51' E 010°52'1411.7
2014-Jul-15 08:20N 55°03' E 011°01'8310.7
2014-Jul-15 00:33N 56°25' E 011°31'1212.1
2014-Jul-14 23:33N 56°35' E 011°41'1312.0
2014-Jul-14 22:29N 56°47' E 011°50'1212.7
2014-Jul-14 21:33N 56°58' E 011°43'1312.5
2014-Jul-14 20:33N 57°10' E 011°35'1212.6
2014-Jul-14 19:33N 57°22' E 011°27'1212.1
2014-Jul-14 18:33N 57°32' E 011°15'1312.5
2014-Jul-14 17:33N 57°41' E 010°58'1110.7
2014-Jul-14 16:33N 57°49' E 010°46'1110.7
2014-Jul-14 15:33N 57°59' E 010°54'1212.2
2014-Jul-14 14:33N 58°10' E 011°04'10 9.7
2014-Jul-14 13:33N 58°17' E 011°17'  
Track history (hours):
 
Tides and Currents Weather Stations Pressure Air Temp Water Temp Dewpoint Dewpoint Depression Visibility Wind Speed Wind Dir Waves Ship Positions

Stena Atlantica

Last reported at 2014-Jul-23 18:34 UTC. Time now 2014-Jul-24 20:03 UTC.
Position N 60°06' E 027°31'.

Length 245 m; draft 8 m.

Type: Tanker. MMSI: 319161000.

Date/timePositionNaut miles runAvg speedWind from/ knotsBaromVisibWave heightAir tempDewpointWater temp
2014-Jul-23 18:34N 60°06' E 027°31'1312.8
2014-Jul-23 17:33N 59°59' E 027°09'1212.3
2014-Jul-23 16:33N 59°59' E 026°44'1312.6
2014-Jul-23 15:34N 59°57' E 026°20'1312.5
2014-Jul-23 14:33N 59°53' E 025°55'1212.1
2014-Jul-23 13:34N 59°51' E 025°32'1312.4
2014-Jul-23 12:30N 59°48' E 025°07'1212.6
2014-Jul-23 11:33N 59°45' E 024°44'1812.3
2014-Jul-23 10:04N 59°41' E 024°08'912.3
2014-Jul-23 09:19N 59°38' E 023°51'912.3
2014-Jul-23 08:33N 59°35' E 023°33'1512.6
2014-Jul-23 07:19N 59°30' E 023°05'1112.3
2014-Jul-23 06:25N 59°27' E 022°44'1012.0
2014-Jul-23 05:33N 59°22' E 022°26'1211.9
2014-Jul-23 04:34N 59°14' E 022°08'1212.0
2014-Jul-23 03:34N 59°07' E 021°49'1212.0
2014-Jul-23 02:34N 58°57' E 021°36'1212.2
2014-Jul-23 01:34N 58°47' E 021°23'1212.2
2014-Jul-23 00:33N 58°37' E 021°09'1212.3
2014-Jul-22 23:33N 58°27' E 020°56'1212.2
2014-Jul-22 22:33N 58°17' E 020°43'1212.1
2014-Jul-22 21:34N 58°07' E 020°30'1211.6
2014-Jul-22 20:33N 57°56' E 020°21'1212.1
2014-Jul-22 19:34N 57°44' E 020°21'1212.2
2014-Jul-22 18:33N 57°32' E 020°19'1212.1
2014-Jul-22 17:34N 57°20' E 020°19'1212.1
2014-Jul-22 16:33N 57°07' E 020°18'1212.1
2014-Jul-22 15:34N 56°55' E 020°18'1212.1
2014-Jul-22 14:34N 56°43' E 020°17'1212.1
2014-Jul-22 13:34N 56°31' E 020°16'1111.1
2014-Jul-22 12:34N 56°21' E 020°23'1212.4
2014-Jul-22 11:34N 56°13' E 020°40'1212.2
2014-Jul-22 10:34N 56°04' E 020°55'11 0.3
2014-Jul-21 01:15N 56°07' E 020°36'6 9.0
2014-Jul-21 00:33N 56°12' E 020°30'1312.3
2014-Jul-20 23:32N 56°23' E 020°18'1212.1
2014-Jul-20 22:34N 56°34' E 020°16'1212.4
2014-Jul-20 21:34N 56°47' E 020°16'1212.4
2014-Jul-20 20:33N 56°59' E 020°16'1212.3
2014-Jul-20 19:33N 57°12' E 020°16'1212.4
2014-Jul-20 18:33N 57°24' E 020°16'1212.5
2014-Jul-20 17:33N 57°36' E 020°16'1212.5
2014-Jul-20 16:34N 57°49' E 020°15'1212.2
2014-Jul-20 15:34N 58°01' E 020°17'1612.4
2014-Jul-20 14:17N 58°15' E 020°30'1012.4
2014-Jul-20 13:31N 58°23' E 020°40'1212.4
2014-Jul-20 12:33N 58°33' E 020°52'7912.2
2014-Jul-20 06:09N 59°31' E 022°35'712.1
2014-Jul-20 05:33N 59°33' E 022°49'1312.4
2014-Jul-20 04:32N 59°36' E 023°13'1212.4
2014-Jul-20 03:33N 59°40' E 023°36'1212.6
2014-Jul-20 02:33N 59°43' E 023°60'1212.4
2014-Jul-20 01:33N 59°47' E 024°23'1312.7
2014-Jul-20 00:34N 59°50' E 024°48'1312.9
2014-Jul-19 23:33N 59°52' E 025°13'2712.9
2014-Jul-19 21:26N 59°58' E 026°07'1112.6
2014-Jul-19 20:32N 60°01' E 026°29'1212.3
2014-Jul-19 19:32N 60°00' E 026°53'  
2014-Jul-17 15:32N 60°07' E 027°33'1111.7
2014-Jul-17 14:33N 60°01' E 027°13'1111.1
2014-Jul-17 13:33N 59°59' E 026°51'1211.6
2014-Jul-17 12:33N 59°58' E 026°28'1212.4
2014-Jul-17 11:33N 59°55' E 026°04'1312.6
2014-Jul-17 10:33N 59°52' E 025°40'1412.5
2014-Jul-17 09:28N 59°49' E 025°13'1212.6
2014-Jul-17 08:30N 59°46' E 024°50'1712.4
2014-Jul-17 07:07N 59°42' E 024°16'712.7
2014-Jul-17 06:33N 59°40' E 024°03'1212.6
2014-Jul-17 05:33N 59°36' E 023°40'1312.6
2014-Jul-17 04:33N 59°32' E 023°16'1312.8
2014-Jul-17 03:33N 59°28' E 022°52'19712.8
2014-Jul-16 12:11N 56°57' E 018°51'812.9
2014-Jul-16 11:32N 56°52' E 018°40'8812.6
2014-Jul-16 04:33N 55°58' E 016°34'1312.6
2014-Jul-16 03:31N 55°51' E 016°14'1512.5
2014-Jul-16 02:19N 55°43' E 015°52'1012.8
2014-Jul-16 01:33N 55°38' E 015°37'1313.0
2014-Jul-16 00:33N 55°31' E 015°18'1313.1
2014-Jul-15 23:33N 55°24' E 014°59'1211.6
2014-Jul-15 22:33N 55°17' E 014°42'1312.8
2014-Jul-15 21:34N 55°09' E 014°25'1312.8
2014-Jul-15 20:33N 55°02' E 014°07'1312.7
2014-Jul-15 19:33N 54°56' E 013°47'1212.5
2014-Jul-15 18:33N 54°53' E 013°26'1312.6
2014-Jul-15 17:32N 54°49' E 013°04'1212.6
2014-Jul-15 16:33N 54°45' E 012°44'1212.4
2014-Jul-15 15:33N 54°38' E 012°27'1312.7
2014-Jul-15 14:33N 54°27' E 012°14'1211.8
2014-Jul-15 13:33N 54°24' E 011°55'1212.2
2014-Jul-15 12:33N 54°27' E 011°35'1212.2
2014-Jul-15 11:33N 54°33' E 011°17'1312.6
2014-Jul-15 10:33N 54°40' E 010°58'1211.2
2014-Jul-15 09:30N 54°51' E 010°52'1411.7
2014-Jul-15 08:20N 55°03' E 011°01'8310.7
2014-Jul-15 00:33N 56°25' E 011°31'1212.1
2014-Jul-14 23:33N 56°35' E 011°41'1312.0
2014-Jul-14 22:29N 56°47' E 011°50'1212.7
2014-Jul-14 21:33N 56°58' E 011°43'1312.5
2014-Jul-14 20:33N 57°10' E 011°35'1212.6
2014-Jul-14 19:33N 57°22' E 011°27'1212.1
2014-Jul-14 18:33N 57°32' E 011°15'1312.5
2014-Jul-14 17:33N 57°41' E 010°58'1110.7
2014-Jul-14 16:33N 57°49' E 010°46'1110.7
2014-Jul-14 15:33N 57°59' E 010°54'1212.2
2014-Jul-14 14:33N 58°10' E 011°04'10 9.7
2014-Jul-14 13:33N 58°17' E 011°17'  

Dump ship's entire track history